sensor_id;sensor_type;location;lat;lon;timestamp;P1;durP1;ratioP1;P2;durP2;ratioP2
62457;SDS011;48509;52.122;5.250;2023-08-07T00:02:15;14.7;;;4.2;;
62457;SDS011;48509;52.122;5.250;2023-08-07T00:03:51;12.4;;;4.0;;
62457;SDS011;48509;52.122;5.250;2023-08-07T00:05:27;12.9;;;4.0;;
62457;SDS011;48509;52.122;5.250;2023-08-07T00:07:03;15.2;;;4.3;;
62457;SDS011;48509;52.122;5.250;2023-08-07T00:10:16;13.1;;;4.0;;
62457;SDS011;48509;52.122;5.250;2023-08-07T00:11:52;16.5;;;4.61;;
62457;SDS011;48509;52.122;5.250;2023-08-07T00:13:28;17.41;;;4.41;;
62457;SDS011;48509;52.122;5.250;2023-08-07T00:16:42;13.0;;;4.3;;
62457;SDS011;48509;52.122;5.250;2023-08-07T00:18:19;15.8;;;4.3;;
62457;SDS011;48509;52.122;5.250;2023-08-07T00:19:55;15.4;;;4.61;;
62457;SDS011;48509;52.122;5.250;2023-08-07T00:23:07;15.8;;;4.61;;
62457;SDS011;48509;52.122;5.250;2023-08-07T00:24:43;17.5;;;4.7;;
62457;SDS011;48509;52.122;5.250;2023-08-07T00:26:19;16.8;;;4.3;;
62457;SDS011;48509;52.122;5.250;2023-08-07T00:27:56;18.41;;;4.61;;
62457;SDS011;48509;52.122;5.250;2023-08-07T00:31:08;13.7;;;4.3;;
62457;SDS011;48509;52.122;5.250;2023-08-07T00:32:45;15.5;;;4.2;;
62457;SDS011;48509;52.122;5.250;2023-08-07T00:34:21;17.61;;;4.61;;
62457;SDS011;48509;52.122;5.250;2023-08-07T00:37:33;19.2;;;4.7;;
62457;SDS011;48509;52.122;5.250;2023-08-07T00:39:09;17.3;;;4.7;;
62457;SDS011;48509;52.122;5.250;2023-08-07T00:40:45;16.2;;;4.5;;
62457;SDS011;48509;52.122;5.250;2023-08-07T00:43:57;10.7;;;3.9;;
62457;SDS011;48509;52.122;5.250;2023-08-07T00:45:34;12.5;;;4.5;;
62457;SDS011;48509;52.122;5.250;2023-08-07T00:47:16;17.91;;;4.7;;
62457;SDS011;48509;52.122;5.250;2023-08-07T00:48:52;18.41;;;4.7;;
62457;SDS011;48509;52.122;5.250;2023-08-07T00:52:05;17.0;;;4.91;;
62457;SDS011;48509;52.122;5.250;2023-08-07T00:53:42;12.2;;;3.9;;
62457;SDS011;48509;52.122;5.250;2023-08-07T00:55:19;16.7;;;4.7;;
62457;SDS011;48509;52.122;5.250;2023-08-07T00:58:36;13.1;;;4.5;;
62457;SDS011;48509;52.122;5.250;2023-08-07T01:00:13;12.7;;;4.3;;
62457;SDS011;48509;52.122;5.250;2023-08-07T01:01:50;24.2;;;4.61;;
62457;SDS011;48509;52.122;5.250;2023-08-07T01:03:28;19.8;;;4.91;;
62457;SDS011;48509;52.122;5.250;2023-08-07T01:06:41;14.2;;;4.5;;
62457;SDS011;48509;52.122;5.250;2023-08-07T01:08:17;17.41;;;4.41;;
62457;SDS011;48509;52.122;5.250;2023-08-07T01:09:53;17.11;;;4.0;;
62457;SDS011;48509;52.122;5.250;2023-08-07T01:13:13;10.9;;;3.9;;
62457;SDS011;48509;52.122;5.250;2023-08-07T01:15:02;16.8;;;3.9;;
62457;SDS011;48509;52.122;5.250;2023-08-07T01:16:45;14.5;;;3.7;;
62457;SDS011;48509;52.122;5.250;2023-08-07T01:18:26;13.2;;;4.0;;
62457;SDS011;48509;52.122;5.250;2023-08-07T01:21:43;16.9;;;4.1;;
62457;SDS011;48509;52.122;5.250;2023-08-07T01:23:23;15.1;;;3.8;;
62457;SDS011;48509;52.122;5.250;2023-08-07T01:24:59;14.3;;;3.6;;
62457;SDS011;48509;52.122;5.250;2023-08-07T01:26:35;13.5;;;3.4;;
62457;SDS011;48509;52.122;5.250;2023-08-07T01:30:06;11.3;;;3.8;;
62457;SDS011;48509;52.122;5.250;2023-08-07T01:31:50;17.3;;;3.9;;
62457;SDS011;48509;52.122;5.250;2023-08-07T01:33:31;13.9;;;3.8;;
62457;SDS011;48509;52.122;5.250;2023-08-07T01:35:11;12.7;;;3.7;;
62457;SDS011;48509;52.122;5.250;2023-08-07T01:38:29;15.5;;;3.7;;
62457;SDS011;48509;52.122;5.250;2023-08-07T01:40:06;9.71;;;3.3;;
62457;SDS011;48509;52.122;5.250;2023-08-07T01:41:44;12.4;;;3.8;;
62457;SDS011;48509;52.122;5.250;2023-08-07T01:43:20;10.4;;;3.5;;
62457;SDS011;48509;52.122;5.250;2023-08-07T01:46:32;16.8;;;3.4;;
62457;SDS011;48509;52.122;5.250;2023-08-07T01:48:08;13.2;;;3.7;;
62457;SDS011;48509;52.122;5.250;2023-08-07T01:49:45;13.5;;;3.8;;
62457;SDS011;48509;52.122;5.250;2023-08-07T01:52:57;13.0;;;3.5;;
62457;SDS011;48509;52.122;5.250;2023-08-07T01:54:33;15.3;;;3.9;;
62457;SDS011;48509;52.122;5.250;2023-08-07T01:56:09;13.5;;;3.7;;
62457;SDS011;48509;52.122;5.250;2023-08-07T01:59:21;11.5;;;2.9;;
62457;SDS011;48509;52.122;5.250;2023-08-07T02:00:57;9.5;;;3.3;;
62457;SDS011;48509;52.122;5.250;2023-08-07T02:02:33;9.5;;;3.3;;
62457;SDS011;48509;52.122;5.250;2023-08-07T02:04:09;16.11;;;3.8;;
62457;SDS011;48509;52.122;5.250;2023-08-07T02:07:22;13.3;;;3.7;;
62457;SDS011;48509;52.122;5.250;2023-08-07T02:08:58;16.0;;;3.5;;
62457;SDS011;48509;52.122;5.250;2023-08-07T02:10:34;19.0;;;3.6;;
62457;SDS011;48509;52.122;5.250;2023-08-07T02:13:46;12.1;;;3.3;;
62457;SDS011;48509;52.122;5.250;2023-08-07T02:15:22;10.21;;;3.3;;
62457;SDS011;48509;52.122;5.250;2023-08-07T02:16:58;12.2;;;3.1;;
62457;SDS011;48509;52.122;5.250;2023-08-07T02:20:11;14.1;;;3.3;;
62457;SDS011;48509;52.122;5.250;2023-08-07T02:21:47;10.1;;;3.1;;
62457;SDS011;48509;52.122;5.250;2023-08-07T02:23:23;13.1;;;3.4;;
62457;SDS011;48509;52.122;5.250;2023-08-07T02:26:35;10.0;;;3.1;;
62457;SDS011;48509;52.122;5.250;2023-08-07T02:28:11;13.1;;;3.2;;
62457;SDS011;48509;52.122;5.250;2023-08-07T02:29:47;14.0;;;3.5;;
62457;SDS011;48509;52.122;5.250;2023-08-07T02:31:23;16.4;;;3.5;;
62457;SDS011;48509;52.122;5.250;2023-08-07T02:34:35;12.0;;;3.3;;
62457;SDS011;48509;52.122;5.250;2023-08-07T02:36:12;11.1;;;3.2;;
62457;SDS011;48509;52.122;5.250;2023-08-07T02:37:48;13.2;;;3.3;;
62457;SDS011;48509;52.122;5.250;2023-08-07T02:41:01;13.9;;;3.7;;
62457;SDS011;48509;52.122;5.250;2023-08-07T02:42:37;17.41;;;4.0;;
62457;SDS011;48509;52.122;5.250;2023-08-07T02:44:13;14.4;;;4.0;;
62457;SDS011;48509;52.122;5.250;2023-08-07T02:47:25;10.8;;;3.7;;
62457;SDS011;48509;52.122;5.250;2023-08-07T02:49:01;9.9;;;3.4;;
62457;SDS011;48509;52.122;5.250;2023-08-07T02:50:38;19.0;;;4.2;;
62457;SDS011;48509;52.122;5.250;2023-08-07T02:52:14;15.1;;;4.0;;
62457;SDS011;48509;52.122;5.250;2023-08-07T02:55:26;13.6;;;3.7;;
62457;SDS011;48509;52.122;5.250;2023-08-07T02:57:02;16.3;;;4.0;;
62457;SDS011;48509;52.122;5.250;2023-08-07T02:58:38;14.5;;;4.0;;
62457;SDS011;48509;52.122;5.250;2023-08-07T03:01:50;17.61;;;4.3;;
62457;SDS011;48509;52.122;5.250;2023-08-07T03:03:26;14.5;;;4.1;;
62457;SDS011;48509;52.122;5.250;2023-08-07T03:05:03;14.2;;;4.2;;
62457;SDS011;48509;52.122;5.250;2023-08-07T03:08:16;15.4;;;4.3;;
62457;SDS011;48509;52.122;5.250;2023-08-07T03:09:53;18.7;;;4.2;;
62457;SDS011;48509;52.122;5.250;2023-08-07T03:11:29;14.3;;;3.6;;
62457;SDS011;48509;52.122;5.250;2023-08-07T03:14:41;11.3;;;3.7;;
62457;SDS011;48509;52.122;5.250;2023-08-07T03:16:17;14.9;;;4.0;;
62457;SDS011;48509;52.122;5.250;2023-08-07T03:17:54;15.2;;;4.1;;
62457;SDS011;48509;52.122;5.250;2023-08-07T03:19:30;11.6;;;3.6;;
62457;SDS011;48509;52.122;5.250;2023-08-07T03:22:42;13.2;;;3.9;;
62457;SDS011;48509;52.122;5.250;2023-08-07T03:24:18;11.9;;;3.5;;
62457;SDS011;48509;52.122;5.250;2023-08-07T03:26:01;11.5;;;3.8;;
62457;SDS011;48509;52.122;5.250;2023-08-07T03:29:14;10.1;;;3.4;;
62457;SDS011;48509;52.122;5.250;2023-08-07T03:30:50;11.5;;;3.4;;
62457;SDS011;48509;52.122;5.250;2023-08-07T03:34:03;12.4;;;3.7;;
62457;SDS011;48509;52.122;5.250;2023-08-07T03:37:15;10.3;;;3.3;;
62457;SDS011;48509;52.122;5.250;2023-08-07T03:38:52;15.0;;;3.6;;
62457;SDS011;48509;52.122;5.250;2023-08-07T03:40:28;11.9;;;3.9;;
62457;SDS011;48509;52.122;5.250;2023-08-07T03:43:40;12.8;;;3.6;;
62457;SDS011;48509;52.122;5.250;2023-08-07T03:45:16;9.6;;;3.3;;
62457;SDS011;48509;52.122;5.250;2023-08-07T03:46:52;8.4;;;3.5;;
62457;SDS011;48509;52.122;5.250;2023-08-07T03:50:05;11.8;;;3.6;;
62457;SDS011;48509;52.122;5.250;2023-08-07T03:51:42;11.7;;;3.6;;
62457;SDS011;48509;52.122;5.250;2023-08-07T03:53:18;10.9;;;3.7;;
62457;SDS011;48509;52.122;5.250;2023-08-07T03:56:30;12.7;;;4.0;;
62457;SDS011;48509;52.122;5.250;2023-08-07T03:58:06;12.3;;;3.6;;
62457;SDS011;48509;52.122;5.250;2023-08-07T03:59:42;9.6;;;3.4;;
62457;SDS011;48509;52.122;5.250;2023-08-07T04:01:18;12.2;;;3.8;;
62457;SDS011;48509;52.122;5.250;2023-08-07T04:04:30;9.5;;;3.6;;
62457;SDS011;48509;52.122;5.250;2023-08-07T04:06:07;10.5;;;4.0;;
62457;SDS011;48509;52.122;5.250;2023-08-07T04:07:43;20.2;;;4.41;;
62457;SDS011;48509;52.122;5.250;2023-08-07T04:10:59;13.1;;;4.1;;
62457;SDS011;48509;52.122;5.250;2023-08-07T04:12:36;11.5;;;3.9;;
62457;SDS011;48509;52.122;5.250;2023-08-07T04:14:12;13.4;;;4.0;;
62457;SDS011;48509;52.122;5.250;2023-08-07T04:17:24;19.61;;;4.3;;
62457;SDS011;48509;52.122;5.250;2023-08-07T04:19:00;19.61;;;4.3;;
62457;SDS011;48509;52.122;5.250;2023-08-07T04:20:36;14.3;;;4.41;;
62457;SDS011;48509;52.122;5.250;2023-08-07T04:22:13;12.1;;;3.8;;
62457;SDS011;48509;52.122;5.250;2023-08-07T04:25:25;13.2;;;4.41;;
62457;SDS011;48509;52.122;5.250;2023-08-07T04:27:01;13.2;;;4.0;;
62457;SDS011;48509;52.122;5.250;2023-08-07T04:28:37;13.7;;;4.2;;
62457;SDS011;48509;52.122;5.250;2023-08-07T04:31:49;10.8;;;3.9;;
62457;SDS011;48509;52.122;5.250;2023-08-07T04:33:25;13.1;;;4.0;;
62457;SDS011;48509;52.122;5.250;2023-08-07T04:35:01;18.91;;;4.41;;
62457;SDS011;48509;52.122;5.250;2023-08-07T04:38:14;14.7;;;4.0;;
62457;SDS011;48509;52.122;5.250;2023-08-07T04:39:50;15.9;;;4.1;;
62457;SDS011;48509;52.122;5.250;2023-08-07T04:41:26;15.0;;;4.41;;
62457;SDS011;48509;52.122;5.250;2023-08-07T04:44:39;11.5;;;3.7;;
62457;SDS011;48509;52.122;5.250;2023-08-07T04:46:15;16.5;;;4.5;;
62457;SDS011;48509;52.122;5.250;2023-08-07T04:47:51;12.1;;;4.1;;
62457;SDS011;48509;52.122;5.250;2023-08-07T04:49:27;12.1;;;4.1;;
62457;SDS011;48509;52.122;5.250;2023-08-07T04:52:39;14.6;;;3.5;;
62457;SDS011;48509;52.122;5.250;2023-08-07T04:54:16;11.5;;;3.7;;
62457;SDS011;48509;52.122;5.250;2023-08-07T04:55:52;11.5;;;4.1;;
62457;SDS011;48509;52.122;5.250;2023-08-07T04:59:04;11.6;;;3.9;;
62457;SDS011;48509;52.122;5.250;2023-08-07T05:00:40;12.1;;;4.0;;
62457;SDS011;48509;52.122;5.250;2023-08-07T05:02:16;11.5;;;3.5;;
62457;SDS011;48509;52.122;5.250;2023-08-07T05:05:28;13.8;;;4.0;;
62457;SDS011;48509;52.122;5.250;2023-08-07T05:07:04;14.9;;;3.8;;
62457;SDS011;48509;52.122;5.250;2023-08-07T05:08:40;12.7;;;3.7;;
62457;SDS011;48509;52.122;5.250;2023-08-07T05:10:17;16.8;;;4.1;;
62457;SDS011;48509;52.122;5.250;2023-08-07T05:13:29;11.0;;;3.4;;
62457;SDS011;48509;52.122;5.250;2023-08-07T05:15:05;16.0;;;4.2;;
62457;SDS011;48509;52.122;5.250;2023-08-07T05:16:42;16.0;;;4.2;;
62457;SDS011;48509;52.122;5.250;2023-08-07T05:19:54;15.8;;;4.41;;
62457;SDS011;48509;52.122;5.250;2023-08-07T05:21:30;15.1;;;4.0;;
62457;SDS011;48509;52.122;5.250;2023-08-07T05:23:06;17.2;;;4.8;;
62457;SDS011;48509;52.122;5.250;2023-08-07T05:26:20;17.3;;;4.7;;
62457;SDS011;48509;52.122;5.250;2023-08-07T05:27:56;16.8;;;4.41;;
62457;SDS011;48509;52.122;5.250;2023-08-07T05:29:32;16.4;;;4.61;;
62457;SDS011;48509;52.122;5.250;2023-08-07T05:32:44;17.5;;;4.5;;
62457;SDS011;48509;52.122;5.250;2023-08-07T05:34:20;16.7;;;3.9;;
62457;SDS011;48509;52.122;5.250;2023-08-07T05:35:56;14.6;;;4.5;;
62457;SDS011;48509;52.122;5.250;2023-08-07T05:37:32;15.2;;;4.8;;
62457;SDS011;48509;52.122;5.250;2023-08-07T05:40:46;16.0;;;4.41;;
62457;SDS011;48509;52.122;5.250;2023-08-07T05:42:22;8.31;;;3.4;;
62457;SDS011;48509;52.122;5.250;2023-08-07T05:43:58;9.5;;;3.0;;
62457;SDS011;48509;52.122;5.250;2023-08-07T05:47:10;10.7;;;2.8;;
62457;SDS011;48509;52.122;5.250;2023-08-07T05:48:46;10.1;;;2.9;;
62457;SDS011;48509;52.122;5.250;2023-08-07T05:50:22;8.4;;;3.1;;
62457;SDS011;48509;52.122;5.250;2023-08-07T05:53:35;8.9;;;3.1;;
62457;SDS011;48509;52.122;5.250;2023-08-07T05:55:10;10.6;;;3.5;;
62457;SDS011;48509;52.122;5.250;2023-08-07T05:56:47;10.1;;;3.6;;
62457;SDS011;48509;52.122;5.250;2023-08-07T05:59:59;10.6;;;3.7;;
62457;SDS011;48509;52.122;5.250;2023-08-07T06:01:35;15.7;;;4.0;;
62457;SDS011;48509;52.122;5.250;2023-08-07T06:03:11;13.5;;;4.0;;
62457;SDS011;48509;52.122;5.250;2023-08-07T06:04:47;13.3;;;3.8;;
62457;SDS011;48509;52.122;5.250;2023-08-07T06:08:00;16.2;;;4.2;;
62457;SDS011;48509;52.122;5.250;2023-08-07T06:09:36;17.2;;;4.3;;
62457;SDS011;48509;52.122;5.250;2023-08-07T06:11:13;13.5;;;4.1;;
62457;SDS011;48509;52.122;5.250;2023-08-07T06:14:25;13.2;;;4.61;;
62457;SDS011;48509;52.122;5.250;2023-08-07T06:16:01;11.3;;;4.2;;
62457;SDS011;48509;52.122;5.250;2023-08-07T06:17:37;12.1;;;4.41;;
62457;SDS011;48509;52.122;5.250;2023-08-07T06:20:49;13.4;;;4.41;;
62457;SDS011;48509;52.122;5.250;2023-08-07T06:22:25;15.0;;;4.1;;
62457;SDS011;48509;52.122;5.250;2023-08-07T06:24:02;12.2;;;4.2;;
62457;SDS011;48509;52.122;5.250;2023-08-07T06:25:38;16.61;;;4.8;;
62457;SDS011;48509;52.122;5.250;2023-08-07T06:28:50;15.7;;;4.61;;
62457;SDS011;48509;52.122;5.250;2023-08-07T06:30:26;16.7;;;4.41;;
62457;SDS011;48509;52.122;5.250;2023-08-07T06:32:02;13.4;;;4.8;;
62457;SDS011;48509;52.122;5.250;2023-08-07T06:35:15;10.3;;;4.0;;
62457;SDS011;48509;52.122;5.250;2023-08-07T06:36:51;12.9;;;4.1;;
62457;SDS011;48509;52.122;5.250;2023-08-07T06:38:28;18.61;;;5.11;;
62457;SDS011;48509;52.122;5.250;2023-08-07T06:41:41;16.61;;;4.91;;
62457;SDS011;48509;52.122;5.250;2023-08-07T06:43:18;17.3;;;5.0;;
62457;SDS011;48509;52.122;5.250;2023-08-07T06:44:54;14.0;;;4.61;;
62457;SDS011;48509;52.122;5.250;2023-08-07T06:46:30;17.2;;;5.11;;
62457;SDS011;48509;52.122;5.250;2023-08-07T06:49:42;17.5;;;4.61;;
62457;SDS011;48509;52.122;5.250;2023-08-07T06:51:18;17.2;;;5.11;;
62457;SDS011;48509;52.122;5.250;2023-08-07T06:52:54;13.9;;;5.11;;
62457;SDS011;48509;52.122;5.250;2023-08-07T06:56:06;19.8;;;6.0;;
62457;SDS011;48509;52.122;5.250;2023-08-07T06:57:43;16.2;;;4.8;;
62457;SDS011;48509;52.122;5.250;2023-08-07T06:59:19;14.3;;;4.7;;
62457;SDS011;48509;52.122;5.250;2023-08-07T07:02:31;17.2;;;4.91;;
62457;SDS011;48509;52.122;5.250;2023-08-07T07:04:07;15.0;;;4.8;;
62457;SDS011;48509;52.122;5.250;2023-08-07T07:05:43;13.6;;;4.7;;
62457;SDS011;48509;52.122;5.250;2023-08-07T07:08:56;16.9;;;5.2;;
62457;SDS011;48509;52.122;5.250;2023-08-07T07:10:32;15.0;;;5.11;;
62457;SDS011;48509;52.122;5.250;2023-08-07T07:12:08;14.0;;;4.8;;
62457;SDS011;48509;52.122;5.250;2023-08-07T07:13:44;14.5;;;4.91;;
62457;SDS011;48509;52.122;5.250;2023-08-07T07:16:56;17.11;;;5.2;;
62457;SDS011;48509;52.122;5.250;2023-08-07T07:18:32;14.8;;;4.61;;
62457;SDS011;48509;52.122;5.250;2023-08-07T07:20:08;14.8;;;4.8;;
62457;SDS011;48509;52.122;5.250;2023-08-07T07:23:21;13.5;;;4.7;;
62457;SDS011;48509;52.122;5.250;2023-08-07T07:24:58;10.21;;;4.3;;
62457;SDS011;48509;52.122;5.250;2023-08-07T07:26:35;13.4;;;4.41;;
62457;SDS011;48509;52.122;5.250;2023-08-07T07:29:47;16.11;;;4.5;;
62457;SDS011;48509;52.122;5.250;2023-08-07T07:31:23;13.4;;;4.5;;
62457;SDS011;48509;52.122;5.250;2023-08-07T07:32:59;12.3;;;4.5;;
62457;SDS011;48509;52.122;5.250;2023-08-07T07:36:14;15.9;;;5.0;;
62457;SDS011;48509;52.122;5.250;2023-08-07T07:37:51;16.11;;;4.91;;
62457;SDS011;48509;52.122;5.250;2023-08-07T07:39:27;16.9;;;5.0;;
62457;SDS011;48509;52.122;5.250;2023-08-07T07:41:04;13.9;;;4.7;;
62457;SDS011;48509;52.122;5.250;2023-08-07T07:44:16;15.6;;;5.3;;
62457;SDS011;48509;52.122;5.250;2023-08-07T07:45:52;17.7;;;5.2;;
62457;SDS011;48509;52.122;5.250;2023-08-07T07:47:28;14.0;;;4.91;;
62457;SDS011;48509;52.122;5.250;2023-08-07T07:50:40;14.5;;;4.41;;
62457;SDS011;48509;52.122;5.250;2023-08-07T07:52:16;17.2;;;4.61;;
62457;SDS011;48509;52.122;5.250;2023-08-07T07:53:53;17.8;;;5.4;;
62457;SDS011;48509;52.122;5.250;2023-08-07T07:57:05;13.1;;;4.61;;
62457;SDS011;48509;52.122;5.250;2023-08-07T07:58:42;16.4;;;4.8;;
62457;SDS011;48509;52.122;5.250;2023-08-07T08:00:18;15.2;;;4.91;;
62457;SDS011;48509;52.122;5.250;2023-08-07T08:01:54;14.3;;;4.7;;
62457;SDS011;48509;52.122;5.250;2023-08-07T08:05:07;16.2;;;5.0;;
62457;SDS011;48509;52.122;5.250;2023-08-07T08:06:43;13.8;;;4.5;;
62457;SDS011;48509;52.122;5.250;2023-08-07T08:08:19;18.3;;;4.41;;
62457;SDS011;48509;52.122;5.250;2023-08-07T08:11:32;17.8;;;4.3;;
62457;SDS011;48509;52.122;5.250;2023-08-07T08:13:08;14.8;;;4.5;;
62457;SDS011;48509;52.122;5.250;2023-08-07T08:14:44;17.0;;;4.2;;
62457;SDS011;48509;52.122;5.250;2023-08-07T08:17:56;8.2;;;3.8;;
62457;SDS011;48509;52.122;5.250;2023-08-07T08:19:32;17.2;;;4.0;;
62457;SDS011;48509;52.122;5.250;2023-08-07T08:21:08;14.3;;;4.0;;
62457;SDS011;48509;52.122;5.250;2023-08-07T08:22:44;12.6;;;4.1;;
62457;SDS011;48509;52.122;5.250;2023-08-07T08:25:56;12.0;;;3.9;;
62457;SDS011;48509;52.122;5.250;2023-08-07T08:27:33;16.11;;;4.61;;
62457;SDS011;48509;52.122;5.250;2023-08-07T08:29:09;13.3;;;4.5;;
62457;SDS011;48509;52.122;5.250;2023-08-07T08:32:21;11.6;;;4.1;;
62457;SDS011;48509;52.122;5.250;2023-08-07T08:33:57;14.9;;;4.5;;
62457;SDS011;48509;52.122;5.250;2023-08-07T08:35:33;16.2;;;4.5;;
62457;SDS011;48509;52.122;5.250;2023-08-07T08:38:45;15.0;;;4.0;;
62457;SDS011;48509;52.122;5.250;2023-08-07T08:40:21;14.9;;;3.9;;
62457;SDS011;48509;52.122;5.250;2023-08-07T08:41:59;10.5;;;3.9;;
62457;SDS011;48509;52.122;5.250;2023-08-07T08:45:13;14.2;;;3.9;;
62457;SDS011;48509;52.122;5.250;2023-08-07T08:46:50;11.3;;;3.8;;
62457;SDS011;48509;52.122;5.250;2023-08-07T08:48:28;17.91;;;4.2;;
62457;SDS011;48509;52.122;5.250;2023-08-07T08:50:09;13.8;;;4.1;;
62457;SDS011;48509;52.122;5.250;2023-08-07T08:53:22;8.81;;;3.1;;
62457;SDS011;48509;52.122;5.250;2023-08-07T08:54:58;14.0;;;3.5;;
62457;SDS011;48509;52.122;5.250;2023-08-07T08:56:34;9.5;;;3.6;;
62457;SDS011;48509;52.122;5.250;2023-08-07T08:59:51;13.2;;;3.5;;
62457;SDS011;48509;52.122;5.250;2023-08-07T09:01:28;9.81;;;3.5;;
62457;SDS011;48509;52.122;5.250;2023-08-07T09:03:06;9.5;;;3.5;;
62457;SDS011;48509;52.122;5.250;2023-08-07T09:04:43;13.3;;;3.9;;
62457;SDS011;48509;52.122;5.250;2023-08-07T09:07:55;12.9;;;3.8;;
62457;SDS011;48509;52.122;5.250;2023-08-07T09:09:32;12.1;;;3.7;;
62457;SDS011;48509;52.122;5.250;2023-08-07T09:11:08;11.4;;;3.3;;
62457;SDS011;48509;52.122;5.250;2023-08-07T09:14:30;10.6;;;3.7;;
62457;SDS011;48509;52.122;5.250;2023-08-07T09:16:13;12.0;;;3.1;;
62457;SDS011;48509;52.122;5.250;2023-08-07T09:17:51;14.2;;;3.9;;
62457;SDS011;48509;52.122;5.250;2023-08-07T09:19:29;18.8;;;3.7;;
62457;SDS011;48509;52.122;5.250;2023-08-07T09:22:41;10.0;;;3.4;;
62457;SDS011;48509;52.122;5.250;2023-08-07T09:24:17;14.1;;;3.7;;
62457;SDS011;48509;52.122;5.250;2023-08-07T09:26:01;12.1;;;3.5;;
62457;SDS011;48509;52.122;5.250;2023-08-07T09:27:39;11.9;;;4.3;;
62457;SDS011;48509;52.122;5.250;2023-08-07T09:30:52;12.4;;;4.0;;
62457;SDS011;48509;52.122;5.250;2023-08-07T09:32:28;9.6;;;3.7;;
62457;SDS011;48509;52.122;5.250;2023-08-07T09:34:04;13.7;;;3.3;;
62457;SDS011;48509;52.122;5.250;2023-08-07T09:37:16;8.9;;;3.1;;
62457;SDS011;48509;52.122;5.250;2023-08-07T09:38:52;9.71;;;3.4;;
62457;SDS011;48509;52.122;5.250;2023-08-07T09:40:29;6.5;;;3.0;;
62457;SDS011;48509;52.122;5.250;2023-08-07T09:43:49;8.31;;;3.2;;
62457;SDS011;48509;52.122;5.250;2023-08-07T09:45:25;10.21;;;3.1;;
62457;SDS011;48509;52.122;5.250;2023-08-07T09:47:10;10.8;;;2.9;;
62457;SDS011;48509;52.122;5.250;2023-08-07T09:48:48;9.5;;;2.9;;
62457;SDS011;48509;52.122;5.250;2023-08-07T09:52:01;11.7;;;3.6;;
62457;SDS011;48509;52.122;5.250;2023-08-07T09:53:41;9.5;;;3.2;;
62457;SDS011;48509;52.122;5.250;2023-08-07T09:55:17;12.6;;;3.3;;
62457;SDS011;48509;52.122;5.250;2023-08-07T09:56:54;10.6;;;3.3;;
62457;SDS011;48509;52.122;5.250;2023-08-07T10:00:09;12.3;;;3.3;;
62457;SDS011;48509;52.122;5.250;2023-08-07T10:01:47;10.4;;;3.5;;
62457;SDS011;48509;52.122;5.250;2023-08-07T10:03:24;7.8;;;3.0;;
62457;SDS011;48509;52.122;5.250;2023-08-07T10:06:37;9.9;;;2.9;;
62457;SDS011;48509;52.122;5.250;2023-08-07T10:08:13;11.0;;;3.4;;
62457;SDS011;48509;52.122;5.250;2023-08-07T10:09:49;11.9;;;3.2;;
62457;SDS011;48509;52.122;5.250;2023-08-07T10:13:03;9.71;;;2.9;;
62457;SDS011;48509;52.122;5.250;2023-08-07T10:14:40;13.2;;;3.0;;
62457;SDS011;48509;52.122;5.250;2023-08-07T10:16:18;9.71;;;2.6;;
62457;SDS011;48509;52.122;5.250;2023-08-07T10:17:54;7.3;;;2.6;;
62457;SDS011;48509;52.122;5.250;2023-08-07T10:21:06;7.7;;;2.9;;
62457;SDS011;48509;52.122;5.250;2023-08-07T10:22:43;7.8;;;2.8;;
62457;SDS011;48509;52.122;5.250;2023-08-07T10:24:21;10.1;;;2.7;;
62457;SDS011;48509;52.122;5.250;2023-08-07T10:27:38;9.81;;;3.1;;
62457;SDS011;48509;52.122;5.250;2023-08-07T10:29:17;9.5;;;2.9;;
62457;SDS011;48509;52.122;5.250;2023-08-07T10:30:56;12.1;;;3.0;;
62457;SDS011;48509;52.122;5.250;2023-08-07T10:32:34;12.0;;;3.4;;
62457;SDS011;48509;52.122;5.250;2023-08-07T10:35:48;9.1;;;3.2;;
62457;SDS011;48509;52.122;5.250;2023-08-07T10:37:40;8.4;;;3.2;;
62457;SDS011;48509;52.122;5.250;2023-08-07T10:39:17;13.0;;;3.1;;
62457;SDS011;48509;52.122;5.250;2023-08-07T10:42:49;11.8;;;3.3;;
62457;SDS011;48509;52.122;5.250;2023-08-07T10:45:21;11.3;;;3.0;;
62457;SDS011;48509;52.122;5.250;2023-08-07T10:48:38;14.0;;;3.4;;
62457;SDS011;48509;52.122;5.250;2023-08-07T10:50:16;9.81;;;2.7;;
62457;SDS011;48509;52.122;5.250;2023-08-07T10:51:52;9.5;;;3.1;;
62457;SDS011;48509;52.122;5.250;2023-08-07T10:53:29;8.81;;;2.7;;
62457;SDS011;48509;52.122;5.250;2023-08-07T10:56:52;7.0;;;2.8;;
62457;SDS011;48509;52.122;5.250;2023-08-07T10:58:30;9.4;;;2.9;;
62457;SDS011;48509;52.122;5.250;2023-08-07T11:00:09;8.2;;;2.7;;
62457;SDS011;48509;52.122;5.250;2023-08-07T11:01:53;7.9;;;2.8;;
62457;SDS011;48509;52.122;5.250;2023-08-07T11:05:11;9.71;;;3.0;;
62457;SDS011;48509;52.122;5.250;2023-08-07T11:06:48;6.7;;;2.7;;
62457;SDS011;48509;52.122;5.250;2023-08-07T11:08:24;12.1;;;2.6;;
62457;SDS011;48509;52.122;5.250;2023-08-07T11:11:36;11.1;;;3.3;;
62457;SDS011;48509;52.122;5.250;2023-08-07T11:13:13;10.0;;;3.3;;
62457;SDS011;48509;52.122;5.250;2023-08-07T11:14:49;10.8;;;3.2;;
62457;SDS011;48509;52.122;5.250;2023-08-07T11:16:25;11.3;;;3.4;;
62457;SDS011;48509;52.122;5.250;2023-08-07T11:19:40;13.0;;;3.3;;
62457;SDS011;48509;52.122;5.250;2023-08-07T11:21:17;9.1;;;3.4;;
62457;SDS011;48509;52.122;5.250;2023-08-07T11:22:54;10.3;;;3.9;;
62457;SDS011;48509;52.122;5.250;2023-08-07T11:26:06;8.6;;;3.3;;
62457;SDS011;48509;52.122;5.250;2023-08-07T11:27:43;13.3;;;3.9;;
62457;SDS011;48509;52.122;5.250;2023-08-07T11:29:19;9.9;;;3.5;;
62457;SDS011;48509;52.122;5.250;2023-08-07T11:32:32;8.1;;;2.9;;
62457;SDS011;48509;52.122;5.250;2023-08-07T11:34:08;11.2;;;3.7;;
62457;SDS011;48509;52.122;5.250;2023-08-07T11:35:47;12.6;;;3.6;;
62457;SDS011;48509;52.122;5.250;2023-08-07T11:37:24;15.8;;;3.5;;
62457;SDS011;48509;52.122;5.250;2023-08-07T11:40:36;9.81;;;3.5;;
62457;SDS011;48509;52.122;5.250;2023-08-07T11:42:12;9.5;;;3.2;;
62457;SDS011;48509;52.122;5.250;2023-08-07T11:43:49;10.6;;;3.1;;
62457;SDS011;48509;52.122;5.250;2023-08-07T11:47:02;9.81;;;3.2;;
62457;SDS011;48509;52.122;5.250;2023-08-07T11:48:39;9.81;;;3.2;;
62457;SDS011;48509;52.122;5.250;2023-08-07T11:50:17;7.9;;;3.4;;
62457;SDS011;48509;52.122;5.250;2023-08-07T11:53:30;9.6;;;3.1;;
62457;SDS011;48509;52.122;5.250;2023-08-07T11:55:09;9.9;;;2.8;;
62457;SDS011;48509;52.122;5.250;2023-08-07T11:56:45;8.31;;;2.9;;
62457;SDS011;48509;52.122;5.250;2023-08-07T11:58:21;7.3;;;2.7;;
62457;SDS011;48509;52.122;5.250;2023-08-07T12:01:37;7.6;;;2.9;;
62457;SDS011;48509;52.122;5.250;2023-08-07T12:03:29;7.3;;;2.6;;
62457;SDS011;48509;52.122;5.250;2023-08-07T12:05:07;5.9;;;2.7;;
62457;SDS011;48509;52.122;5.250;2023-08-07T12:06:52;8.81;;;2.5;;
62457;SDS011;48509;52.122;5.250;2023-08-07T12:10:08;6.3;;;2.5;;
62457;SDS011;48509;52.122;5.250;2023-08-07T12:11:46;13.9;;;2.8;;
62457;SDS011;48509;52.122;5.250;2023-08-07T12:13:23;6.7;;;2.4;;
62457;SDS011;48509;52.122;5.250;2023-08-07T12:15:01;6.1;;;2.8;;
62457;SDS011;48509;52.122;5.250;2023-08-07T12:18:13;11.8;;;2.8;;
62457;SDS011;48509;52.122;5.250;2023-08-07T12:19:49;9.0;;;2.4;;
62457;SDS011;48509;52.122;5.250;2023-08-07T12:21:26;6.9;;;2.6;;
62457;SDS011;48509;52.122;5.250;2023-08-07T12:24:38;7.4;;;2.7;;
62457;SDS011;48509;52.122;5.250;2023-08-07T12:26:16;8.2;;;2.7;;
62457;SDS011;48509;52.122;5.250;2023-08-07T12:27:53;7.1;;;2.1;;
62457;SDS011;48509;52.122;5.250;2023-08-07T12:31:05;8.81;;;2.31;;
62457;SDS011;48509;52.122;5.250;2023-08-07T12:32:43;5.11;;;2.21;;
62457;SDS011;48509;52.122;5.250;2023-08-07T12:34:19;4.61;;;2.0;;
62457;SDS011;48509;52.122;5.250;2023-08-07T12:35:56;6.3;;;2.21;;
62457;SDS011;48509;52.122;5.250;2023-08-07T12:39:08;4.61;;;1.9;;
62457;SDS011;48509;52.122;5.250;2023-08-07T12:40:44;5.3;;;2.21;;
62457;SDS011;48509;52.122;5.250;2023-08-07T12:42:20;6.3;;;2.21;;
62457;SDS011;48509;52.122;5.250;2023-08-07T12:45:32;5.8;;;2.31;;
62457;SDS011;48509;52.122;5.250;2023-08-07T12:47:08;8.31;;;2.4;;
62457;SDS011;48509;52.122;5.250;2023-08-07T12:48:45;9.1;;;2.21;;
62457;SDS011;48509;52.122;5.250;2023-08-07T12:51:57;6.3;;;2.0;;